Orbital elements of FENGYUN 1C DEB
| Launched | 9 May 1999 |
| Flight ended | – |
| Launch site | Taiyuan Space Center, PRC |
| Owner | People's Republic of China |
| NORAD ID | 29754 |
| Date fetched |
Epoch osculation |
Inc. [°] |
Ecc. | RA asc node [hr] |
Arg Peri. [°] |
Mean anom [°] |
Mean motion [rev/day] |
Abs. mag |
| Date fetched |
Epoch osculation |
Inc. [°] |
Ecc. | RA asc node [hr] |
Arg Peri. [°] |
Mean anom [°] |
Mean motion [rev/day] |
Abs. mag |
| 2026 May 05 17:57 | 2026 May 05 07:06:50 | 98.8860 | 0.00362 | 15.5633 | 187.4914 | 196.1036 | 14.19693 | – |
| 2026 May 04 17:57 | 2026 Apr 30 07:01:18 | 98.8854 | 0.00359 | 15.2286 | 201.6185 | 196.1036 | 14.19693 | – |
| 2026 May 03 17:57 | 2026 Apr 30 07:01:18 | 98.8854 | 0.00359 | 15.2286 | 201.6185 | 196.1036 | 14.19693 | – |
| 2026 May 02 17:57 | 2026 Apr 30 07:01:18 | 98.8854 | 0.00359 | 15.2286 | 201.6185 | 196.1036 | 14.19693 | – |
| 2026 May 01 17:56 | 2026 Apr 30 07:01:18 | 98.8854 | 0.00359 | 15.2286 | 201.6185 | 196.1036 | 14.19693 | – |
| 2026 Apr 30 17:56 | 2026 Apr 30 07:01:18 | 98.8854 | 0.00359 | 15.2286 | 201.6185 | 196.1036 | 14.19693 | – |
| 2026 Apr 29 17:57 | 2026 Apr 24 07:13:53 | 98.8846 | 0.00355 | 14.8278 | 218.7293 | 196.1036 | 14.19693 | – |
| 2026 Apr 28 17:56 | 2026 Apr 24 07:13:53 | 98.8846 | 0.00355 | 14.8278 | 218.7293 | 196.1036 | 14.19693 | – |
| 2026 Apr 27 17:58 | 2026 Apr 24 07:13:53 | 98.8846 | 0.00355 | 14.8278 | 218.7293 | 196.1036 | 14.19693 | – |
| 2026 Apr 26 17:58 | 2026 Apr 24 07:13:53 | 98.8846 | 0.00355 | 14.8278 | 218.7293 | 196.1036 | 14.19693 | – |
| 2026 Apr 25 17:58 | 2026 Apr 24 07:13:53 | 98.8846 | 0.00355 | 14.8278 | 218.7293 | 196.1036 | 14.19693 | – |
| 2026 Apr 24 17:59 | 2026 Apr 24 07:13:53 | 98.8846 | 0.00355 | 14.8278 | 218.7293 | 196.1036 | 14.19693 | – |
| 2026 Apr 23 17:57 | 2026 Apr 19 05:28:55 | 98.8842 | 0.00351 | 14.4884 | 233.3562 | 196.1036 | 14.19693 | – |
| 2026 Apr 22 17:57 | 2026 Apr 19 05:28:55 | 98.8842 | 0.00351 | 14.4884 | 233.3562 | 196.1036 | 14.19693 | – |
| 2026 Apr 21 17:57 | 2026 Apr 19 05:28:55 | 98.8842 | 0.00351 | 14.4884 | 233.3562 | 196.1036 | 14.19693 | – |
| 2026 Apr 20 17:57 | 2026 Apr 19 05:28:55 | 98.8842 | 0.00351 | 14.4884 | 233.3562 | 196.1036 | 14.19693 | – |
| 2026 Apr 19 17:58 | 2026 Apr 19 05:28:55 | 98.8842 | 0.00351 | 14.4884 | 233.3562 | 196.1036 | 14.19693 | – |
| 2026 Apr 18 17:56 | 2026 Apr 13 05:42:17 | 98.8835 | 0.00347 | 14.0877 | 250.8194 | 196.1036 | 14.19693 | – |
| 2026 Apr 16 17:57 | 2026 Apr 13 05:42:17 | 98.8835 | 0.00347 | 14.0877 | 250.8194 | 196.1036 | 14.19693 | – |
| 2026 Apr 14 17:57 | 2026 Apr 13 05:42:17 | 98.8835 | 0.00347 | 14.0877 | 250.8194 | 196.1036 | 14.19693 | – |
| 2026 Apr 13 17:57 | 2026 Apr 13 05:42:17 | 98.8835 | 0.00347 | 14.0877 | 250.8194 | 196.1036 | 14.19693 | – |
| 2026 Apr 12 17:57 | 2026 Apr 08 05:36:18 | 98.8823 | 0.00344 | 13.7530 | 265.4952 | 196.1036 | 14.19693 | – |
| 2026 Apr 11 17:57 | 2026 Apr 08 05:36:18 | 98.8823 | 0.00344 | 13.7530 | 265.4952 | 196.1036 | 14.19693 | – |
| 2026 Apr 10 17:58 | 2026 Apr 08 05:36:18 | 98.8823 | 0.00344 | 13.7530 | 265.4952 | 196.1036 | 14.19693 | – |
| 2026 Apr 09 18:01 | 2026 Apr 08 05:36:18 | 98.8823 | 0.00344 | 13.7530 | 265.4952 | 196.1036 | 14.19693 | – |
| 2026 Apr 08 17:57 | 2026 Apr 08 05:36:18 | 98.8823 | 0.00344 | 13.7530 | 265.4952 | 196.1036 | 14.19693 | – |